createdAt,value
2022-09-11T00:02:24.363Z,100837.75
2022-09-11T00:05:11.241Z,100834.22
2022-09-11T00:07:58.197Z,100831.69
2022-09-11T00:10:45.838Z,100830.81
2022-09-11T00:13:34.447Z,100823.72
2022-09-11T00:16:24.204Z,100829.16
2022-09-11T00:19:13.683Z,100831.81
2022-09-11T00:22:00.051Z,100819.09
2022-09-11T00:24:46.677Z,100820.69
2022-09-11T00:27:33.566Z,100824.03
2022-09-11T00:30:21.645Z,100821.38
2022-09-11T00:33:08.291Z,100821.50
2022-09-11T00:35:58.461Z,100831.31
2022-09-11T00:38:46.410Z,100825.94
2022-09-11T00:41:36.319Z,100833.22
2022-09-11T00:45:00.382Z,100837.69
2022-09-11T00:47:50.669Z,100842.06
2022-09-11T00:50:38.423Z,100835.94
2022-09-11T00:53:28.008Z,100841.84
2022-09-11T00:56:14.967Z,100842.81
2022-09-11T00:59:04.860Z,100847.94
2022-09-11T01:01:51.683Z,100850.56
2022-09-11T01:04:39.984Z,100843.50
2022-09-11T01:07:28.302Z,100850.59
2022-09-11T01:10:17.332Z,100844.50
2022-09-11T01:13:15.497Z,100847.09
2022-09-11T01:16:10.762Z,100851.53
2022-09-11T01:19:07.703Z,100849.81
2022-09-11T01:22:31.737Z,100853.22
2022-09-11T01:25:28.580Z,100849.50
2022-09-11T01:28:21.927Z,100849.84
2022-09-11T01:31:13.731Z,100852.19
2022-09-11T01:34:06.856Z,100847.66
2022-09-11T01:36:59.797Z,100849.94
2022-09-11T01:39:53.270Z,100855.13
2022-09-11T01:42:46.098Z,100854.88
2022-09-11T01:45:37.376Z,100857.16
2022-09-11T01:48:30.386Z,100851.75
2022-09-11T01:51:22.325Z,100860.47
2022-09-11T01:54:14.728Z,100857.50
2022-09-11T01:57:07.067Z,100859.22
2022-09-11T01:59:56.874Z,100863.94
2022-09-11T02:02:50.903Z,100861.34
2022-09-11T02:05:45.900Z,100860.03
2022-09-11T02:08:45.313Z,100848.38
2022-09-11T02:11:34.892Z,100851.19
2022-09-11T02:14:29.735Z,100852.97
2022-09-11T02:17:24.682Z,100846.91
2022-09-11T02:20:13.608Z,100865.66
2022-09-11T02:23:00.435Z,100869.25
2022-09-11T02:25:48.251Z,100869.94
2022-09-11T02:28:35.034Z,100876.31
2022-09-11T02:31:22.900Z,100877.44
2022-09-11T02:34:12.172Z,100874.50
2022-09-11T02:37:18.061Z,100880.56
2022-09-11T02:40:44.715Z,100876.72
2022-09-11T02:43:44.395Z,100867.41
2022-09-11T02:46:57.192Z,100871.22
2022-09-11T02:49:56.741Z,100880.00
2022-09-11T02:52:51.044Z,100886.78
2022-09-11T02:55:54.262Z,100876.00
2022-09-11T02:58:46.821Z,100879.78
2022-09-11T03:01:47.961Z,100882.25
2022-09-11T03:04:36.971Z,100890.25
2022-09-11T03:07:25.597Z,100888.09
2022-09-11T03:10:15.383Z,100882.84
2022-09-11T03:13:13.737Z,100882.19
2022-09-11T03:16:07.036Z,100894.84
2022-09-11T03:18:54.107Z,100899.06
2022-09-11T03:21:40.981Z,100902.69
2022-09-11T03:24:27.360Z,100899.81
2022-09-11T03:27:15.513Z,100904.34
2022-09-11T03:30:02.294Z,100909.84
2022-09-11T03:32:49.300Z,100908.31
2022-09-11T03:35:36.150Z,100906.38
2022-09-11T03:38:22.910Z,100906.31
2022-09-11T03:41:10.890Z,100908.31
2022-09-11T03:43:59.546Z,100905.25
2022-09-11T03:46:46.091Z,100910.00
2022-09-11T03:49:33.963Z,100909.16
2022-09-11T03:52:20.640Z,100918.84
2022-09-11T03:55:08.862Z,100917.00
2022-09-11T03:58:21.424Z,100914.13
2022-09-11T04:01:11.544Z,100915.88
2022-09-11T04:03:59.658Z,100917.44
2022-09-11T04:06:52.051Z,100920.91
2022-09-11T04:09:38.787Z,100915.19
2022-09-11T04:12:25.873Z,100929.56
2022-09-11T04:15:12.621Z,100929.97
2022-09-11T04:18:05.302Z,100920.50
2022-09-11T04:20:53.387Z,100915.31
2022-09-11T04:23:41.747Z,100913.84
2022-09-11T04:26:29.818Z,100916.31
2022-09-11T04:29:26.563Z,100906.66
2022-09-11T04:32:15.192Z,100924.72
2022-09-11T04:35:04.059Z,100916.19
2022-09-11T04:37:56.463Z,100915.91
2022-09-11T04:40:43.346Z,100917.03
2022-09-11T04:43:31.691Z,100920.38
2022-09-11T04:46:20.550Z,100921.66
2022-09-11T04:49:08.348Z,100920.91
2022-09-11T04:51:57.904Z,100921.03
2022-09-11T04:54:46.280Z,100923.63
2022-09-11T04:57:35.870Z,100923.50
2022-09-11T05:00:25.161Z,100926.09
2022-09-11T05:03:11.890Z,100928.31
2022-09-11T05:05:58.612Z,100936.88
2022-09-11T05:08:48.182Z,100935.09
2022-09-11T05:11:38.350Z,100943.63
2022-09-11T05:14:25.575Z,100940.28
2022-09-11T05:17:13.569Z,100952.41
2022-09-11T05:20:03.696Z,100953.53
2022-09-11T05:22:59.535Z,100962.84
2022-09-11T05:26:04.124Z,100960.25
2022-09-11T05:29:07.794Z,100963.25
2022-09-11T05:32:12.372Z,100954.53
2022-09-11T05:35:16.013Z,100970.72
2022-09-11T05:38:06.265Z,100968.13
2022-09-11T05:40:57.785Z,100978.44
2022-09-11T05:43:47.364Z,100976.66
2022-09-11T05:46:42.334Z,100973.31
2022-09-11T05:49:35.175Z,100984.44
2022-09-11T05:52:25.463Z,100985.31
2022-09-11T05:55:13.924Z,100995.72
2022-09-11T05:58:03.827Z,101006.66
2022-09-11T06:01:05.682Z,101006.91
2022-09-11T06:03:56.656Z,101011.13
2022-09-11T06:06:50.255Z,101015.50
2022-09-11T06:09:47.428Z,101012.19
2022-09-11T06:12:38.758Z,101020.03
2022-09-11T06:15:45.671Z,101025.38
2022-09-11T06:18:36.187Z,101026.31
2022-09-11T06:21:31.647Z,101031.97
2022-09-11T06:24:45.617Z,101042.16
2022-09-11T06:27:34.913Z,101037.50
2022-09-11T06:30:22.974Z,101047.56
2022-09-11T06:33:13.111Z,101037.00
2022-09-11T06:36:04.566Z,101041.47
2022-09-11T06:38:57.083Z,101007.72
2022-09-11T06:41:47.429Z,101041.97
2022-09-11T06:44:36.338Z,101030.84
2022-09-11T06:47:23.718Z,101049.03
2022-09-11T06:50:14.591Z,101055.28
2022-09-11T06:53:27.413Z,101045.56
2022-09-11T06:56:16.787Z,101049.00
2022-09-11T06:59:05.473Z,101055.16
2022-09-11T07:01:53.140Z,101053.38
2022-09-11T07:04:40.703Z,101048.59
2022-09-11T07:07:28.740Z,101050.47
2022-09-11T07:10:15.672Z,101046.50
2022-09-11T07:13:02.309Z,101042.44
2022-09-11T07:15:50.116Z,101055.13
2022-09-11T07:18:39.635Z,101049.53
2022-09-11T07:21:30.324Z,101051.44
2022-09-11T07:24:22.018Z,101048.44
2022-09-11T07:27:09.068Z,101050.19
2022-09-11T07:29:56.689Z,101046.34
2022-09-11T07:32:49.690Z,101057.03
2022-09-11T07:35:38.201Z,101053.72
2022-09-11T07:38:25.019Z,101053.63
2022-09-11T07:41:14.895Z,101056.09
2022-09-11T07:44:03.071Z,101060.03
2022-09-11T07:46:51.594Z,101061.75
2022-09-11T07:49:38.348Z,101062.22
2022-09-11T07:52:25.729Z,101060.63
2022-09-11T07:55:17.163Z,101066.00
2022-09-11T07:58:05.906Z,101077.41
2022-09-11T08:01:00.672Z,101064.00
2022-09-11T08:03:49.440Z,101068.66
2022-09-11T08:06:37.834Z,101073.22
2022-09-11T08:09:32.887Z,101084.66
2022-09-11T08:12:23.995Z,101078.63
2022-09-11T08:15:12.210Z,101086.63
2022-09-11T08:18:00.975Z,101094.16
2022-09-11T08:20:51.606Z,101097.06
2022-09-11T08:23:42.702Z,101091.84
2022-09-11T08:26:31.892Z,101094.91
2022-09-11T08:29:19.214Z,101099.78
2022-09-11T08:32:09.036Z,101102.44
2022-09-11T08:34:55.454Z,101102.03
2022-09-11T08:37:43.343Z,101105.41
2022-09-11T08:40:31.854Z,101098.72
2022-09-11T08:43:23.922Z,101098.22
2022-09-11T08:46:12.221Z,101103.75
2022-09-11T08:49:07.624Z,101100.78
2022-09-11T08:51:57.844Z,101108.41
2022-09-11T08:54:47.939Z,101113.78
2022-09-11T08:57:46.196Z,101112.03
2022-09-11T09:00:43.181Z,101122.34
2022-09-11T09:03:56.174Z,101116.44
2022-09-11T09:06:55.555Z,101117.47
2022-09-11T09:09:56.843Z,101112.22
2022-09-11T09:12:54.108Z,101119.81
2022-09-11T09:15:49.082Z,101116.78
2022-09-11T09:18:41.976Z,101123.97
2022-09-11T09:21:34.956Z,101120.69
2022-09-11T09:24:24.235Z,101128.19
2022-09-11T09:27:20.533Z,101128.66
2022-09-11T09:30:15.363Z,101138.09
2022-09-11T09:33:11.406Z,101133.75
2022-09-11T09:36:13.437Z,101136.25
2022-09-11T09:39:00.521Z,101133.66
2022-09-11T09:42:25.876Z,101143.88
2022-09-11T09:45:38.402Z,101138.84
2022-09-11T09:48:25.711Z,101137.19
2022-09-11T09:51:14.897Z,101131.09
2022-09-11T09:54:04.311Z,101141.00
2022-09-11T09:56:58.140Z,101142.47
2022-09-11T09:59:51.863Z,101140.41
2022-09-11T10:02:40.701Z,101148.72
2022-09-11T10:05:31.273Z,101148.53
2022-09-11T10:08:34.060Z,101155.97
2022-09-11T10:11:30.039Z,101149.13
2022-09-11T10:14:49.386Z,101156.59
2022-09-11T10:17:35.298Z,101157.16
2022-09-11T10:20:27.784Z,101159.59
2022-09-11T10:23:25.725Z,101168.84
2022-09-11T10:26:17.919Z,101167.66
2022-09-11T10:29:10.011Z,101170.34
2022-09-11T10:31:59.339Z,101163.94
2022-09-11T10:34:48.793Z,101163.41
2022-09-11T10:37:35.404Z,101162.34
2022-09-11T10:40:24.563Z,101156.75
2022-09-11T10:43:25.587Z,101160.28
2022-09-11T10:46:28.357Z,101151.91
2022-09-11T10:49:20.484Z,101153.88
2022-09-11T10:52:19.096Z,101150.41
2022-09-11T10:55:15.344Z,101150.81
2022-09-11T10:58:08.669Z,101148.66
2022-09-11T11:00:55.579Z,101145.41
2022-09-11T11:03:42.232Z,101145.25
2022-09-11T11:06:51.002Z,101137.19
2022-09-11T11:09:57.504Z,101138.47
2022-09-11T11:12:55.117Z,101130.34
2022-09-11T11:15:58.479Z,101147.38
2022-09-11T11:19:06.808Z,101144.09
2022-09-11T11:22:07.050Z,101138.06
2022-09-11T11:25:08.505Z,101144.78
2022-09-11T11:28:28.330Z,101144.59
2022-09-11T11:31:35.775Z,101138.09
2022-09-11T11:34:35.448Z,101143.00
2022-09-11T11:37:28.038Z,101137.81
2022-09-11T11:40:23.664Z,101134.72
2022-09-11T11:43:13.352Z,101134.41
2022-09-11T11:46:04.689Z,101139.66
2022-09-11T11:48:59.181Z,101140.47
2022-09-11T11:51:52.445Z,101142.00
2022-09-11T11:54:44.781Z,101137.09
2022-09-11T11:57:41.717Z,101137.88
2022-09-11T12:00:30.263Z,101140.56
2022-09-11T12:03:23.863Z,101143.25
2022-09-11T12:06:11.717Z,101152.84
2022-09-11T12:08:58.873Z,101148.53
2022-09-11T12:11:49.001Z,101152.06
2022-09-11T12:14:37.453Z,101155.03
2022-09-11T12:17:28.269Z,101153.09
2022-09-11T12:20:29.968Z,101151.75
2022-09-11T12:23:56.096Z,101157.28
2022-09-11T12:26:43.169Z,101155.66
2022-09-11T12:29:58.009Z,101148.59
2022-09-11T12:32:47.031Z,101156.28
2022-09-11T12:35:42.020Z,101150.56
2022-09-11T12:38:38.165Z,101154.00
2022-09-11T12:41:29.708Z,101157.91
2022-09-11T12:44:31.843Z,101161.75
2022-09-11T12:47:23.508Z,101157.94
2022-09-11T12:50:19.596Z,101165.44
2022-09-11T12:53:13.554Z,101161.31
2022-09-11T12:56:02.114Z,101169.03
2022-09-11T12:58:54.710Z,101168.25
2022-09-11T13:01:44.925Z,101163.00
2022-09-11T13:04:34.981Z,101155.50
2022-09-11T13:07:29.397Z,101158.72
2022-09-11T13:10:30.463Z,101159.47
2022-09-11T13:13:45.027Z,101168.16
2022-09-11T13:16:34.903Z,101164.31
2022-09-11T13:19:21.938Z,101152.59
2022-09-11T13:22:23.655Z,101158.56
2022-09-11T13:25:14.495Z,101162.91
2022-09-11T13:28:02.597Z,101167.66
2022-09-11T13:30:55.696Z,101177.44
2022-09-11T13:33:43.176Z,101182.03
2022-09-11T13:36:31.674Z,101184.63
2022-09-11T13:39:21.235Z,101183.03
2022-09-11T13:42:16.148Z,101180.72
2022-09-11T13:45:05.202Z,101177.88
2022-09-11T13:47:54.772Z,101177.66
2022-09-11T13:50:41.865Z,101191.13
2022-09-11T13:53:28.749Z,101182.56
2022-09-11T13:56:22.009Z,101194.28
2022-09-11T13:59:38.482Z,101191.03
2022-09-11T14:02:50.946Z,101184.03
2022-09-11T14:05:37.924Z,101182.03
2022-09-11T14:08:36.910Z,101185.59
2022-09-11T14:11:29.526Z,101186.63
2022-09-11T14:14:23.756Z,101188.84
2022-09-11T14:17:13.875Z,101188.44
2022-09-11T14:20:03.906Z,101189.22
2022-09-11T14:22:56.306Z,101200.13
2022-09-11T14:26:05.745Z,101195.56
2022-09-11T14:29:03.773Z,101189.59
2022-09-11T14:31:51.954Z,101195.41
2022-09-11T14:34:38.746Z,101188.25
2022-09-11T14:37:29.218Z,101186.50
2022-09-11T14:40:18.216Z,101183.66
2022-09-11T14:43:06.659Z,101182.13
2022-09-11T14:45:55.412Z,101178.75
2022-09-11T14:48:44.132Z,101182.13
2022-09-11T14:51:30.834Z,101182.50
2022-09-11T14:54:17.662Z,101176.06
2022-09-11T14:57:04.422Z,101181.41
2022-09-11T14:59:52.451Z,101175.91
2022-09-11T15:02:40.475Z,101192.91
2022-09-11T15:05:27.442Z,101180.00
2022-09-11T15:08:14.149Z,101178.19
2022-09-11T15:11:00.602Z,101184.41
2022-09-11T15:14:10.821Z,101191.47
2022-09-11T15:16:57.628Z,101188.16
2022-09-11T15:19:47.614Z,101191.56
2022-09-11T15:22:35.461Z,101182.19
2022-09-11T15:25:23.962Z,101176.84
2022-09-11T15:28:11.097Z,101179.19
2022-09-11T15:30:58.923Z,101181.25
2022-09-11T15:33:47.164Z,101185.34
2022-09-11T15:36:38.229Z,101172.34
2022-09-11T15:39:24.971Z,101183.75
2022-09-11T15:42:11.640Z,101182.44
2022-09-11T15:44:58.189Z,101187.00
2022-09-11T15:47:45.574Z,101186.28
2022-09-11T15:50:32.526Z,101180.69
2022-09-11T15:53:21.674Z,101183.44
2022-09-11T15:56:10.225Z,101181.47
2022-09-11T15:58:58.897Z,101187.78
2022-09-11T16:01:46.550Z,101191.38
2022-09-11T16:04:33.746Z,101192.25
2022-09-11T16:07:20.647Z,101188.34
2022-09-11T16:10:09.518Z,101193.84
2022-09-11T16:12:58.835Z,101197.16
2022-09-11T16:15:46.083Z,101196.03
2022-09-11T16:18:37.553Z,101194.28
2022-09-11T16:21:24.394Z,101192.25
2022-09-11T16:24:14.780Z,101193.38
2022-09-11T16:27:02.834Z,101196.50
2022-09-11T16:32:56.776Z,101187.13
2022-09-11T16:35:43.681Z,101193.13
2022-09-11T16:38:30.893Z,101193.81
2022-09-11T16:41:19.489Z,101190.28
2022-09-11T16:44:09.048Z,101188.88
2022-09-11T16:46:55.697Z,101185.41
2022-09-11T16:50:03.279Z,101186.69
2022-09-11T16:52:48.824Z,101191.88
2022-09-11T16:55:35.690Z,101191.69
2022-09-11T16:58:22.967Z,101186.00
2022-09-11T17:01:14.724Z,101194.38
2022-09-11T17:04:01.132Z,101195.84
2022-09-11T17:06:48.009Z,101191.06
2022-09-11T17:09:34.917Z,101196.69
2022-09-11T17:12:22.398Z,101197.78
2022-09-11T17:15:10.518Z,101199.13
2022-09-11T17:17:58.394Z,101195.97
2022-09-11T17:20:45.355Z,101207.53
2022-09-11T17:23:32.250Z,101212.09
2022-09-11T17:26:19.393Z,101204.91
2022-09-11T17:29:07.731Z,101213.97
2022-09-11T17:32:16.838Z,101209.50
2022-09-11T17:35:03.305Z,101213.91
2022-09-11T17:37:50.794Z,101210.50
2022-09-11T17:40:39.087Z,101216.78
2022-09-11T17:43:26.448Z,101192.50
2022-09-11T17:46:15.195Z,101206.91
2022-09-11T17:49:02.130Z,101211.56
2022-09-11T17:51:50.165Z,101213.72
2022-09-11T17:54:36.854Z,101211.53
2022-09-11T17:57:23.770Z,101211.88
2022-09-11T18:00:12.199Z,101212.25
2022-09-11T18:02:59.689Z,101218.78
2022-09-11T18:05:46.356Z,101217.25
2022-09-11T18:08:34.596Z,101214.72
2022-09-11T18:11:21.283Z,101216.91
2022-09-11T18:14:09.237Z,101217.16
2022-09-11T18:16:55.796Z,101212.09
2022-09-11T18:19:42.558Z,101214.13
2022-09-11T18:22:29.926Z,101221.44
2022-09-11T18:25:21.831Z,101211.88
2022-09-11T18:28:09.900Z,101216.47
2022-09-11T18:31:02.647Z,101218.47
2022-09-11T18:33:54.735Z,101213.31
2022-09-11T18:36:42.463Z,101220.56
2022-09-11T18:39:29.271Z,101221.66
2022-09-11T18:42:18.165Z,101219.16
2022-09-11T18:45:05.450Z,101226.47
2022-09-11T18:47:54.614Z,101229.31
2022-09-11T18:50:41.362Z,101237.50
2022-09-11T18:53:28.125Z,101235.88
2022-09-11T18:56:14.808Z,101239.59
2022-09-11T18:59:03.471Z,101244.16
2022-09-11T19:01:50.490Z,101241.72
2022-09-11T19:04:37.153Z,101237.44
2022-09-11T19:07:23.915Z,101242.94
2022-09-11T19:10:12.528Z,101241.28
2022-09-11T19:13:00.211Z,101243.22
2022-09-11T19:15:56.300Z,101251.31
2022-09-11T19:18:42.768Z,101253.22
2022-09-11T19:21:30.073Z,101247.19
2022-09-11T19:24:17.065Z,101250.03
2022-09-11T19:27:03.756Z,101256.28
2022-09-11T19:29:50.407Z,101256.28
2022-09-11T19:32:38.518Z,101257.16
2022-09-11T19:35:25.657Z,101263.50
2022-09-11T19:38:13.195Z,101264.59
2022-09-11T19:41:00.867Z,101263.88
2022-09-11T19:43:48.065Z,101261.34
2022-09-11T19:46:37.477Z,101266.88
2022-09-11T19:49:25.598Z,101269.81
2022-09-11T19:52:13.864Z,101278.00
2022-09-11T19:55:00.600Z,101282.34
2022-09-11T19:57:47.534Z,101281.53
2022-09-11T20:00:37.768Z,101288.81
2022-09-11T20:03:24.640Z,101285.44
2022-09-11T20:06:14.038Z,101283.69
2022-09-11T20:12:09.203Z,101287.28
2022-09-11T20:14:55.792Z,101280.28
2022-09-11T20:17:44.586Z,101283.22
2022-09-11T20:20:31.614Z,101286.94
2022-09-11T20:23:19.589Z,101292.44
2022-09-11T20:26:16.263Z,101285.00
2022-09-11T20:29:06.910Z,101294.72
2022-09-11T20:31:55.192Z,101292.78
2022-09-11T20:34:45.402Z,101287.41
2022-09-11T20:37:34.130Z,101286.75
2022-09-11T20:40:22.180Z,101291.22
2022-09-11T20:43:09.010Z,101289.59
2022-09-11T20:45:55.872Z,101294.19
2022-09-11T20:48:42.740Z,101292.22
2022-09-11T20:51:29.489Z,101297.44
2022-09-11T20:54:16.552Z,101291.22
2022-09-11T20:57:04.624Z,101288.31
2022-09-11T20:59:51.363Z,101300.03
2022-09-11T21:02:38.193Z,101291.19
2022-09-11T21:05:24.823Z,101293.41
2022-09-11T21:08:11.580Z,101306.38
2022-09-11T21:11:02.750Z,101297.91
2022-09-11T21:13:50.697Z,101297.25
2022-09-11T21:16:37.371Z,101298.00
2022-09-11T21:19:24.074Z,101300.19
2022-09-11T21:22:10.899Z,101301.25
2022-09-11T21:24:57.574Z,101292.63
2022-09-11T21:27:44.244Z,101295.94
2022-09-11T21:30:32.496Z,101294.69
2022-09-11T21:33:19.829Z,101273.91
2022-09-11T21:36:07.013Z,101287.88
2022-09-11T21:38:53.819Z,101268.88
2022-09-11T21:41:40.669Z,101287.34
2022-09-11T21:44:27.294Z,101293.25
2022-09-11T21:47:16.229Z,101294.25
2022-09-11T21:50:07.195Z,101291.72
2022-09-11T21:52:54.672Z,101288.63
2022-09-11T21:55:44.249Z,101285.88
2022-09-11T21:58:31.149Z,101294.91
2022-09-11T22:01:17.537Z,101293.22
2022-09-11T22:04:05.769Z,101295.16
2022-09-11T22:06:52.393Z,101298.00
2022-09-11T22:09:39.166Z,101291.78
2022-09-11T22:12:26.266Z,101291.91
2022-09-11T22:15:13.048Z,101275.31
2022-09-11T22:17:59.810Z,101284.47
2022-09-11T22:20:47.935Z,101291.81
2022-09-11T22:23:35.354Z,101285.69
2022-09-11T22:26:24.569Z,101289.84
2022-09-11T22:29:11.149Z,101292.16
2022-09-11T22:31:58.047Z,101290.88
2022-09-11T22:34:44.727Z,101285.81
2022-09-11T22:37:32.920Z,101294.75
2022-09-11T22:40:19.750Z,101294.75
2022-09-11T22:43:06.535Z,101295.31
2022-09-11T22:45:53.850Z,101289.19
2022-09-11T22:48:41.157Z,101288.25
2022-09-11T22:51:28.102Z,101298.91
2022-09-11T22:54:16.763Z,101297.34
2022-09-11T22:57:03.262Z,101297.25
2022-09-11T22:59:49.994Z,101290.25
2022-09-11T23:02:37.308Z,101273.91
2022-09-11T23:05:49.875Z,101291.19
2022-09-11T23:08:39.505Z,101302.88
2022-09-11T23:11:29.216Z,101289.59
2022-09-11T23:14:15.950Z,101295.91
2022-09-11T23:17:02.481Z,101291.50
2022-09-11T23:19:49.291Z,101292.41
2022-09-11T23:22:36.194Z,101292.59
2022-09-11T23:25:25.219Z,101292.91
2022-09-11T23:28:13.180Z,101293.78
2022-09-11T23:30:59.910Z,101299.88
2022-09-11T23:33:47.058Z,101291.16
2022-09-11T23:36:34.855Z,101291.16
2022-09-11T23:39:21.346Z,101295.56
2022-09-11T23:42:08.053Z,101282.56
2022-09-11T23:44:56.214Z,101287.97
2022-09-11T23:47:43.280Z,101288.94
2022-09-11T23:50:30.150Z,101289.84
2022-09-11T23:53:16.902Z,101286.44
2022-09-11T23:56:04.233Z,101285.69
2022-09-11T23:58:51.612Z,101282.38
